createdAt,value
2022-08-07T00:02:37.562Z,53471.28
2022-08-07T00:05:05.794Z,53495.13
2022-08-07T00:07:40.822Z,53515.00
2022-08-07T00:10:26.326Z,53467.28
2022-08-07T00:13:01.118Z,53479.22
2022-08-07T00:15:38.501Z,53515.00
2022-08-07T00:18:19.308Z,53511.03
2022-08-07T00:20:50.491Z,53503.06
2022-08-07T00:23:21.483Z,53538.88
2022-08-07T00:25:59.274Z,53491.16
2022-08-07T00:28:33.393Z,53483.19
2022-08-07T00:31:06.149Z,53515.00
2022-08-07T00:33:35.926Z,53511.03
2022-08-07T00:36:05.974Z,53509.03
2022-08-07T00:38:39.268Z,53503.06
2022-08-07T00:41:09.990Z,53530.91
2022-08-07T00:44:01.816Z,53509.03
2022-08-07T00:46:34.389Z,53511.03
2022-08-07T00:49:04.562Z,53487.19
2022-08-07T00:51:56.778Z,53479.22
2022-08-07T00:54:22.975Z,53511.03
2022-08-07T00:56:52.395Z,53505.06
2022-08-07T00:59:35.377Z,53507.06
2022-08-07T01:02:06.217Z,53475.25
2022-08-07T01:04:43.189Z,53515.00
2022-08-07T01:07:12.811Z,53515.00
2022-08-07T01:10:03.932Z,53499.09
2022-08-07T01:12:31.540Z,53511.03
2022-08-07T01:15:03.957Z,53505.06
2022-08-07T01:17:34.392Z,53540.84
2022-08-07T01:20:08.913Z,53509.03
2022-08-07T01:22:46.561Z,53524.94
2022-08-07T01:25:54.398Z,53515.00
2022-08-07T01:28:12.596Z,53544.81
2022-08-07T01:30:43.823Z,53520.97
2022-08-07T01:33:15.584Z,53505.06
2022-08-07T01:35:54.294Z,53505.06
2022-08-07T01:38:38.159Z,53522.97
2022-08-07T01:41:26.181Z,53534.88
2022-08-07T01:44:01.742Z,53540.84
2022-08-07T01:46:32.821Z,53532.91
2022-08-07T01:49:02.378Z,53524.94
2022-08-07T01:52:03.503Z,53499.09
2022-08-07T01:54:37.034Z,53515.00
2022-08-07T01:57:24.239Z,53511.03
2022-08-07T02:00:03.227Z,53522.97
2022-08-07T02:03:11.997Z,53518.97
2022-08-07T02:05:48.135Z,53560.72
2022-08-07T02:08:29.456Z,53526.94
2022-08-07T02:11:03.291Z,53558.75
2022-08-07T02:13:57.375Z,53511.03
2022-08-07T02:16:28.586Z,53530.91
2022-08-07T02:19:05.606Z,53550.78
2022-08-07T02:21:58.584Z,53479.22
2022-08-07T02:24:30.250Z,53552.78
2022-08-07T02:27:03.434Z,53538.88
2022-08-07T02:29:43.514Z,53540.84
2022-08-07T02:32:29.793Z,53515.00
2022-08-07T02:35:01.009Z,53558.75
2022-08-07T02:37:34.088Z,53515.00
2022-08-07T02:40:29.967Z,53554.78
2022-08-07T02:43:02.053Z,53520.97
2022-08-07T02:45:58.143Z,53554.78
2022-08-07T02:48:29.611Z,53558.75
2022-08-07T02:51:04.365Z,53560.72
2022-08-07T02:53:38.904Z,53552.78
2022-08-07T02:56:21.190Z,53556.75
2022-08-07T02:58:55.339Z,53542.84
2022-08-07T03:01:35.290Z,53552.78
2022-08-07T03:04:12.584Z,53572.66
2022-08-07T03:06:44.681Z,53538.88
2022-08-07T03:09:42.064Z,53552.78
2022-08-07T03:12:11.628Z,53562.72
2022-08-07T03:14:56.445Z,53558.75
2022-08-07T03:17:26.005Z,53546.81
2022-08-07T03:19:58.026Z,53550.78
2022-08-07T03:22:31.077Z,53524.94
2022-08-07T03:25:01.561Z,53552.78
2022-08-07T03:28:08.781Z,53540.84
2022-08-07T03:30:34.761Z,53556.75
2022-08-07T03:33:05.097Z,53582.59
2022-08-07T03:35:43.702Z,53550.78
2022-08-07T03:38:21.502Z,53538.88
2022-08-07T03:41:01.833Z,53556.75
2022-08-07T03:43:36.084Z,53578.63
2022-08-07T03:46:10.523Z,53592.53
2022-08-07T03:49:02.772Z,53520.97
2022-08-07T03:51:47.714Z,53552.78
2022-08-07T03:54:36.485Z,53584.59
2022-08-07T03:58:33.471Z,53560.72
2022-08-07T04:00:04.221Z,53558.75
2022-08-07T04:02:47.473Z,53550.78
2022-08-07T04:05:40.768Z,53574.66
2022-08-07T04:08:18.378Z,53552.78
2022-08-07T04:10:53.912Z,53562.72
2022-08-07T04:13:27.731Z,53552.78
2022-08-07T04:15:57.598Z,53550.78
2022-08-07T04:18:57.612Z,53562.72
2022-08-07T04:21:18.312Z,53582.59
2022-08-07T04:24:07.200Z,53548.81
2022-08-07T04:26:36.503Z,53568.69
2022-08-07T04:29:05.355Z,53562.72
2022-08-07T04:32:03.488Z,53562.72
2022-08-07T04:34:32.897Z,53568.69
2022-08-07T04:37:03.816Z,53558.75
2022-08-07T04:39:36.634Z,53558.75
2022-08-07T04:42:09.799Z,53554.78
2022-08-07T04:44:54.639Z,53538.88
2022-08-07T04:47:58.887Z,53530.91
2022-08-07T04:50:34.888Z,53550.78
2022-08-07T04:53:40.150Z,53534.88
2022-08-07T04:58:14.298Z,53548.81
2022-08-07T05:00:12.729Z,53544.81
2022-08-07T05:02:16.865Z,53536.88
2022-08-07T05:05:11.459Z,53546.81
2022-08-07T05:08:02.131Z,53558.75
2022-08-07T05:10:38.806Z,53515.00
2022-08-07T05:14:52.822Z,53503.06
2022-08-07T05:16:04.442Z,53511.03
2022-08-07T05:18:37.641Z,53554.78
2022-08-07T05:21:11.846Z,53530.91
2022-08-07T05:23:49.647Z,53544.81
2022-08-07T05:26:24.239Z,53528.94
2022-08-07T05:29:04.310Z,53509.03
2022-08-07T05:31:38.979Z,53534.88
2022-08-07T05:34:16.939Z,53499.09
2022-08-07T05:36:52.667Z,53501.09
2022-08-07T05:40:13.864Z,53473.25
2022-08-07T05:42:34.448Z,53471.28
2022-08-07T05:45:26.157Z,53477.22
2022-08-07T05:48:01.141Z,53491.16
2022-08-07T05:50:35.200Z,53503.06
2022-08-07T05:54:13.680Z,53485.19
2022-08-07T05:56:03.054Z,53471.28
2022-08-07T05:58:39.191Z,53453.38
2022-08-07T06:01:13.394Z,53475.25
2022-08-07T06:03:56.614Z,53453.38
2022-08-07T06:06:29.747Z,53459.34
2022-08-07T06:09:05.097Z,53463.31
2022-08-07T06:11:40.070Z,53455.38
2022-08-07T06:14:12.340Z,53433.50
2022-08-07T06:16:56.329Z,53467.28
2022-08-07T06:19:57.685Z,53445.44
2022-08-07T06:22:27.274Z,53457.34
2022-08-07T06:25:11.001Z,53435.47
2022-08-07T06:28:00.456Z,53447.41
2022-08-07T06:30:37.319Z,53415.59
2022-08-07T06:33:20.574Z,53393.75
2022-08-07T06:36:11.983Z,53369.88
2022-08-07T06:38:51.669Z,53411.63
2022-08-07T06:42:01.667Z,53393.75
2022-08-07T06:44:51.045Z,53419.59
2022-08-07T06:47:21.096Z,53411.63
2022-08-07T06:49:58.492Z,53377.84
2022-08-07T06:52:37.211Z,53407.66
2022-08-07T06:55:33.828Z,53391.75
2022-08-07T06:58:06.029Z,53373.84
2022-08-07T07:00:47.750Z,53391.75
2022-08-07T07:03:26.442Z,53352.00
2022-08-07T07:06:11.263Z,53357.94
2022-08-07T07:08:46.782Z,53365.91
2022-08-07T07:12:08.747Z,53352.00
2022-08-07T07:14:08.522Z,53320.19
2022-08-07T07:16:51.204Z,53342.06
2022-08-07T07:19:55.631Z,53342.06
2022-08-07T07:22:36.138Z,53373.84
2022-08-07T07:26:30.601Z,53350.00
2022-08-07T07:28:29.481Z,53310.25
2022-08-07T07:30:58.022Z,53348.00
2022-08-07T07:33:32.074Z,53300.31
2022-08-07T07:36:12.929Z,53320.19
2022-08-07T07:38:46.210Z,53310.25
2022-08-07T07:41:19.479Z,53300.31
2022-08-07T07:44:17.341Z,53308.25
2022-08-07T07:46:55.724Z,53304.28
2022-08-07T07:50:33.820Z,53340.06
2022-08-07T07:52:24.459Z,53300.31
2022-08-07T07:54:55.498Z,53274.47
2022-08-07T07:57:43.837Z,53296.31
2022-08-07T08:00:29.246Z,53280.41
2022-08-07T08:03:05.505Z,53260.53
2022-08-07T08:05:54.253Z,53276.44
2022-08-07T08:08:34.447Z,53256.56
2022-08-07T08:11:08.472Z,53244.63
2022-08-07T08:13:53.448Z,53240.66
2022-08-07T08:16:29.594Z,53284.41
2022-08-07T08:19:17.756Z,53248.63
2022-08-07T08:22:09.842Z,53280.41
2022-08-07T08:25:09.390Z,53278.44
2022-08-07T08:27:56.522Z,53256.56
2022-08-07T08:30:32.142Z,53268.50
2022-08-07T08:33:15.092Z,53262.53
2022-08-07T08:35:49.696Z,53240.66
2022-08-07T08:38:29.285Z,53250.59
2022-08-07T08:41:06.575Z,53264.53
2022-08-07T08:43:56.211Z,53236.69
2022-08-07T08:46:41.629Z,53224.75
2022-08-07T08:49:32.859Z,53248.63
2022-08-07T08:52:13.993Z,53238.69
2022-08-07T08:54:51.102Z,53202.91
2022-08-07T08:57:34.026Z,53214.81
2022-08-07T09:00:07.260Z,53218.81
2022-08-07T09:02:49.645Z,53236.69
2022-08-07T09:05:37.304Z,53226.75
2022-08-07T09:08:24.290Z,53230.72
2022-08-07T09:11:10.050Z,53198.91
2022-08-07T09:13:56.196Z,53216.81
2022-08-07T09:16:36.308Z,53192.94
2022-08-07T09:19:51.355Z,53212.84
2022-08-07T09:24:32.366Z,53224.75
2022-08-07T09:25:18.322Z,53212.84
2022-08-07T09:28:01.315Z,53220.78
2022-08-07T09:30:56.236Z,53177.06
2022-08-07T09:33:57.514Z,53212.84
2022-08-07T09:36:37.315Z,53226.75
2022-08-07T09:39:55.024Z,53196.94
2022-08-07T09:42:42.488Z,53188.97
2022-08-07T09:47:26.354Z,53175.06
2022-08-07T09:48:50.228Z,53157.19
2022-08-07T09:52:15.745Z,53161.16
2022-08-07T09:54:37.421Z,53165.13
2022-08-07T09:57:48.369Z,53161.16
2022-08-07T10:00:24.307Z,53200.91
2022-08-07T10:04:06.153Z,53169.09
2022-08-07T10:06:29.447Z,53161.16
2022-08-07T10:09:34.303Z,53143.25
2022-08-07T10:12:21.710Z,53165.13
2022-08-07T10:15:15.396Z,53163.13
2022-08-07T10:18:12.423Z,53149.22
2022-08-07T10:20:50.223Z,53179.03
2022-08-07T10:24:05.281Z,53165.13
2022-08-07T10:26:51.646Z,53141.28
2022-08-07T10:29:59.287Z,53149.22
2022-08-07T10:32:53.022Z,53169.09
2022-08-07T10:35:55.939Z,53157.19
2022-08-07T10:38:48.268Z,53153.19
2022-08-07T10:41:52.223Z,53157.19
2022-08-07T10:44:28.451Z,53153.19
2022-08-07T10:47:18.943Z,53153.19
2022-08-07T10:50:04.956Z,53159.16
2022-08-07T10:52:42.752Z,53159.16
2022-08-07T10:55:36.945Z,53129.34
2022-08-07T10:58:24.941Z,53161.16
2022-08-07T11:01:23.584Z,53141.28
2022-08-07T11:04:23.154Z,53165.13
2022-08-07T11:07:01.389Z,53139.28
2022-08-07T11:10:07.174Z,53145.25
2022-08-07T11:12:37.670Z,53133.31
2022-08-07T11:15:17.333Z,53161.16
2022-08-07T11:17:53.915Z,53125.38
2022-08-07T11:20:25.727Z,53145.25
2022-08-07T11:23:04.632Z,53139.28
2022-08-07T11:25:50.172Z,53151.22
2022-08-07T11:28:26.464Z,53151.22
2022-08-07T11:31:01.065Z,53139.28
2022-08-07T11:33:54.331Z,53151.22
2022-08-07T11:36:49.664Z,53113.44
2022-08-07T11:40:00.770Z,53125.38
2022-08-07T11:42:31.813Z,53121.41
2022-08-07T11:45:07.132Z,53161.16
2022-08-07T11:47:54.749Z,53133.31
2022-08-07T11:50:36.641Z,53137.28
2022-08-07T11:53:25.666Z,53107.47
2022-08-07T11:56:09.314Z,53101.50
2022-08-07T11:59:22.174Z,53125.38
2022-08-07T12:02:17.593Z,53125.38
2022-08-07T12:05:09.220Z,53137.28
2022-08-07T12:08:00.540Z,53121.41
2022-08-07T12:10:41.997Z,53093.56
2022-08-07T12:13:18.537Z,53085.63
2022-08-07T12:16:06.127Z,53087.59
2022-08-07T12:18:45.334Z,53063.75
2022-08-07T12:21:55.947Z,53101.50
2022-08-07T12:24:37.961Z,53115.44
2022-08-07T12:27:16.272Z,53089.59
2022-08-07T12:29:53.022Z,53089.59
2022-08-07T12:32:32.679Z,53105.50
2022-08-07T12:35:07.325Z,53109.47
2022-08-07T12:38:10.169Z,53073.69
2022-08-07T12:40:50.878Z,53097.53
2022-08-07T12:44:04.406Z,53073.69
2022-08-07T12:46:26.406Z,53061.75
2022-08-07T12:49:25.675Z,53067.72
2022-08-07T12:52:14.394Z,53049.84
2022-08-07T12:55:00.144Z,53035.91
2022-08-07T12:57:39.053Z,53093.56
2022-08-07T13:00:32.618Z,53027.97
2022-08-07T13:03:27.138Z,53057.78
2022-08-07T13:06:28.325Z,53101.50
2022-08-07T13:09:12.456Z,53093.56
2022-08-07T13:12:10.129Z,53091.56
2022-08-07T13:14:55.286Z,53059.78
2022-08-07T13:17:40.018Z,53051.81
2022-08-07T13:20:21.838Z,53057.78
2022-08-07T13:23:59.762Z,53065.72
2022-08-07T13:26:01.429Z,53059.78
2022-08-07T13:28:35.428Z,53061.75
2022-08-07T13:31:13.083Z,53081.63
2022-08-07T13:34:32.873Z,53073.69
2022-08-07T13:36:44.855Z,53061.75
2022-08-07T13:39:49.814Z,53061.75
2022-08-07T13:42:21.450Z,53089.59
2022-08-07T13:45:11.666Z,53087.59
2022-08-07T13:48:06.170Z,53059.78
2022-08-07T13:50:45.241Z,53065.72
2022-08-07T13:53:59.441Z,53075.66
2022-08-07T13:56:36.149Z,53067.72
2022-08-07T13:59:15.847Z,53045.84
2022-08-07T14:01:59.300Z,53053.81
2022-08-07T14:04:37.996Z,53057.78
2022-08-07T14:07:16.881Z,53069.72
2022-08-07T14:10:15.631Z,53081.63
2022-08-07T14:12:49.329Z,53087.59
2022-08-07T14:15:35.293Z,53057.78
2022-08-07T14:18:27.061Z,53073.69
2022-08-07T14:21:08.128Z,53081.63
2022-08-07T14:24:00.566Z,53061.75
2022-08-07T14:26:50.191Z,53047.84
2022-08-07T14:30:10.030Z,53045.84
2022-08-07T14:32:30.019Z,53053.81
2022-08-07T14:35:03.968Z,53091.56
2022-08-07T14:37:36.485Z,53061.75
2022-08-07T14:40:26.646Z,53101.50
2022-08-07T14:45:54.690Z,53051.81
2022-08-07T14:48:28.160Z,53093.56
2022-08-07T14:51:02.607Z,53073.69
2022-08-07T14:56:30.600Z,53081.63
2022-08-07T14:59:13.484Z,53069.72
2022-08-07T15:01:58.532Z,53057.78
2022-08-07T15:04:28.836Z,53089.59
2022-08-07T15:07:22.318Z,53069.72
2022-08-07T15:09:59.254Z,53075.66
2022-08-07T15:12:42.145Z,53091.56
2022-08-07T15:15:21.261Z,53051.81
2022-08-07T15:20:55.684Z,53095.56
2022-08-07T15:26:23.154Z,53063.75
2022-08-07T15:30:10.225Z,53057.78
2022-08-07T15:34:50.389Z,53093.56
2022-08-07T15:46:37.148Z,53069.72
2022-08-07T15:49:15.297Z,53097.53
2022-08-07T15:54:39.640Z,53061.75
2022-08-07T15:57:40.270Z,53085.63
2022-08-07T16:00:06.338Z,53067.72
2022-08-07T16:02:46.601Z,53093.56
2022-08-07T16:05:19.747Z,53061.75
2022-08-07T16:08:30.538Z,53081.63
2022-08-07T16:10:47.306Z,53081.63
2022-08-07T16:14:09.141Z,53065.72
2022-08-07T16:16:57.257Z,53059.78
2022-08-07T16:19:58.984Z,53061.75
2022-08-07T16:22:54.272Z,53073.69
2022-08-07T16:25:56.661Z,53067.72
2022-08-07T16:30:06.674Z,53087.59
2022-08-07T16:31:51.754Z,53057.78
2022-08-07T16:34:38.437Z,53089.59
2022-08-07T16:38:05.997Z,53073.69
2022-08-07T16:41:27.741Z,53071.69
2022-08-07T16:44:57.270Z,53067.72
2022-08-07T16:47:51.252Z,53097.53
2022-08-07T16:50:39.416Z,53085.63
2022-08-07T16:54:06.792Z,53077.66
2022-08-07T16:57:15.530Z,53071.69
2022-08-07T16:59:55.785Z,53059.78
2022-08-07T17:02:51.674Z,53055.78
2022-08-07T17:06:19.571Z,53061.75
2022-08-07T17:09:08.587Z,53065.72
2022-08-07T17:12:04.254Z,53079.66
2022-08-07T17:14:39.118Z,53061.75
2022-08-07T17:17:15.590Z,53065.72
2022-08-07T17:20:02.853Z,53063.75
2022-08-07T17:22:46.782Z,53089.59
2022-08-07T17:25:45.779Z,53083.63
2022-08-07T17:28:19.594Z,53105.50
2022-08-07T17:30:59.146Z,53093.56
2022-08-07T17:34:32.767Z,53083.63
2022-08-07T17:36:26.207Z,53071.69
2022-08-07T17:39:10.621Z,53073.69
2022-08-07T17:42:03.608Z,53085.63
2022-08-07T17:44:50.115Z,53089.59
2022-08-07T17:47:42.282Z,53081.63
2022-08-07T17:50:19.989Z,53087.59
2022-08-07T17:52:59.802Z,53087.59
2022-08-07T17:55:54.825Z,53069.72
2022-08-07T17:58:31.704Z,53059.78
2022-08-07T18:01:20.893Z,53081.63
2022-08-07T18:04:16.489Z,53069.72
2022-08-07T18:07:19.355Z,53081.63
2022-08-07T18:10:04.503Z,53069.72
2022-08-07T18:12:49.544Z,53089.59
2022-08-07T18:15:23.842Z,53087.59
2022-08-07T18:18:45.568Z,53081.63
2022-08-07T18:21:38.269Z,53095.56
2022-08-07T18:24:07.192Z,53121.41
2022-08-07T18:27:17.369Z,53085.63
2022-08-07T18:30:31.033Z,53081.63
2022-08-07T18:33:28.616Z,53117.41
2022-08-07T18:36:10.724Z,53111.44
2022-08-07T18:38:56.627Z,53109.47
2022-08-07T18:41:46.382Z,53097.53
2022-08-07T18:44:27.999Z,53117.41
2022-08-07T18:47:06.585Z,53145.25
2022-08-07T18:50:32.778Z,53137.28
2022-08-07T18:53:01.408Z,53129.34
2022-08-07T18:55:55.809Z,53141.28
2022-08-07T18:58:51.407Z,53137.28
2022-08-07T19:02:18.140Z,53133.31
2022-08-07T19:04:59.543Z,53161.16
2022-08-07T19:07:34.650Z,53153.19
2022-08-07T19:10:18.349Z,53151.22
2022-08-07T19:12:59.298Z,53149.22
2022-08-07T19:16:03.055Z,53153.19
2022-08-07T19:18:45.096Z,53151.22
2022-08-07T19:21:51.077Z,53155.19
2022-08-07T19:24:30.082Z,53147.22
2022-08-07T19:28:57.421Z,53169.09
2022-08-07T19:31:01.410Z,53147.22
2022-08-07T19:32:57.233Z,53157.19
2022-08-07T19:35:33.086Z,53183.00
2022-08-07T19:38:17.004Z,53169.09
2022-08-07T19:40:50.347Z,53161.16
2022-08-07T19:43:44.222Z,53167.13
2022-08-07T19:46:17.817Z,53137.28
2022-08-07T19:48:53.582Z,53161.16
2022-08-07T19:51:52.517Z,53145.25
2022-08-07T19:54:33.180Z,53173.06
2022-08-07T19:58:03.483Z,53165.13
2022-08-07T19:59:59.963Z,53149.22
2022-08-07T20:02:39.219Z,53159.16
2022-08-07T20:05:13.367Z,53194.94
2022-08-07T20:07:47.692Z,53206.88
2022-08-07T20:10:51.556Z,53183.00
2022-08-07T20:13:23.421Z,53194.94
2022-08-07T20:15:57.705Z,53208.84
2022-08-07T20:18:33.759Z,53224.75
2022-08-07T20:21:21.204Z,53185.00
2022-08-07T20:23:57.848Z,53214.81
2022-08-07T20:26:32.621Z,53204.88
2022-08-07T20:29:17.053Z,53210.84
2022-08-07T20:32:04.209Z,53188.97
2022-08-07T20:34:50.343Z,53244.63
2022-08-07T20:37:26.416Z,53236.69
2022-08-07T20:40:04.382Z,53246.63
2022-08-07T20:42:35.730Z,53232.72
2022-08-07T20:45:32.732Z,53202.91
2022-08-07T20:48:00.217Z,53236.69
2022-08-07T20:50:30.614Z,53228.75
2022-08-07T20:53:00.525Z,53228.75
2022-08-07T20:55:32.287Z,53226.75
2022-08-07T20:58:12.034Z,53266.50
2022-08-07T21:00:56.248Z,53250.59
2022-08-07T21:03:28.721Z,53240.66
2022-08-07T21:06:21.678Z,53270.47
2022-08-07T21:09:01.011Z,53248.63
2022-08-07T21:11:49.961Z,53248.63
2022-08-07T21:14:31.900Z,53272.47
2022-08-07T21:18:03.778Z,53272.47
2022-08-07T21:20:05.070Z,53252.59
2022-08-07T21:22:45.119Z,53248.63
2022-08-07T21:25:28.865Z,53252.59
2022-08-07T21:28:07.735Z,53240.66
2022-08-07T21:30:50.627Z,53270.47
2022-08-07T21:33:23.385Z,53296.31
2022-08-07T21:36:12.009Z,53292.34
2022-08-07T21:39:46.392Z,53294.34
2022-08-07T21:42:37.580Z,53284.41
2022-08-07T21:46:07.895Z,53292.34
2022-08-07T21:48:08.379Z,53304.28
2022-08-07T21:51:04.078Z,53300.31
2022-08-07T21:53:36.968Z,53308.25
2022-08-07T21:56:36.458Z,53300.31
2022-08-07T21:59:18.770Z,53318.19
2022-08-07T22:02:10.248Z,53298.31
2022-08-07T22:04:53.923Z,53316.22
2022-08-07T22:07:31.780Z,53290.38
2022-08-07T22:10:24.592Z,53312.22
2022-08-07T22:12:56.740Z,53328.13
2022-08-07T22:16:41.891Z,53302.28
2022-08-07T22:18:25.008Z,53352.00
2022-08-07T22:21:02.836Z,53320.19
2022-08-07T22:23:40.286Z,53336.09
2022-08-07T22:26:20.851Z,53352.00
2022-08-07T22:28:58.609Z,53332.09
2022-08-07T22:31:56.016Z,53328.13
2022-08-07T22:34:35.647Z,53363.91
2022-08-07T22:37:14.508Z,53340.06
2022-08-07T22:39:54.000Z,53355.97
2022-08-07T22:42:29.775Z,53346.03
2022-08-07T22:45:03.512Z,53350.00
2022-08-07T22:48:31.493Z,53352.00
2022-08-07T22:51:23.417Z,53381.81
2022-08-07T22:54:09.286Z,53363.91
2022-08-07T22:56:57.141Z,53346.03
2022-08-07T23:00:01.100Z,53353.97
2022-08-07T23:03:02.789Z,53369.88
2022-08-07T23:06:09.742Z,53352.00
2022-08-07T23:10:05.453Z,53320.19
2022-08-07T23:12:10.665Z,53363.91
2022-08-07T23:15:12.164Z,53381.81
2022-08-07T23:18:21.247Z,53379.81
2022-08-07T23:21:17.315Z,53375.84
2022-08-07T23:24:21.046Z,53381.81
2022-08-07T23:27:10.801Z,53369.88
2022-08-07T23:30:39.591Z,53373.84
2022-08-07T23:34:21.125Z,53371.88
2022-08-07T23:36:10.679Z,53363.91
2022-08-07T23:39:00.063Z,53387.78
2022-08-07T23:42:05.152Z,53387.78
2022-08-07T23:45:06.723Z,53395.72
2022-08-07T23:48:12.035Z,53391.75
2022-08-07T23:50:55.833Z,53415.59
2022-08-07T23:53:51.495Z,53385.78
2022-08-07T23:56:27.943Z,53393.75
